KTSP/TSP METAR and TAF weather

Enter ICAO airport designator
Station Type Date Time Source
KTSP METAR 2019/02/22 22:35 UTC NOAA

KTSP 222235Z AUTO 30007KT 10SM SCT017 02/M02 A3001 RMK AO2


Station Type Date Time Source
KTSP Decoded METAR 2019/02/22 22:35 UTC NOAA

Station name not available
Feb 22, 2019 - 05:35 PM EST / 2019.02.22 2235 UTC
Wind: from the WNW (300 degrees) at 8 MPH (7 KT):0
Visibility: 10 mile(s):0
Sky conditions: partly cloudy
Temperature: 35 F (2 C)
Windchill: 28 F (-2 C):1
Dew Point: 28 F (-2 C)
Relative Humidity: 74%
Pressure (altimeter): 30.01 in. Hg (1016 hPa)
ob: KTSP 222235Z AUTO 30007KT 10SM SCT017 02/M02 A3001 RMK AO2
cycle: 22

Station Type Date Time Source
KTSP TAF UTC NOAA

Error!


Example: see airport list